Franklin, NC

1:22 PM EDT on August 28, 2016 (GMT -0400)
APRSWXNET | | Change Station

Elev 3917 ft 35.08 °N, 83.59 °W | Updated 424 days ago

Mostly Cloudy
Mostly Cloudy
79 °F
Feels Like 79 °F
N
4
Wind Variable Wind from ENE
Gusts mph

Today
High -- | Low -- °F
--% Chance of Precip.
Yesterday
High -- | Low -- °F
Precip. -- in
Pressure 30.25 in
Visibility 10.0 miles
Clouds Scattered Clouds 5000 ft
Scattered Clouds 10000 ft
Dew Point 69 °F
Humidity 71%
Rainfall in
Snow Depth Not available.
7:04 AM 8:05 PM
Waning Crescent, 14% visible
METAR K1A5 281700Z AUTO 00000KT 10SM SCT050 SCT100 28/20 A3025 RMK AO2 T02820201
Pressure 30.25 in
Visibility 10.0 miles
Clouds Scattered Clouds 5000 ft
Scattered Clouds 10000 ft
Dew Point 69 °F
Humidity 71%
Rainfall in
Snow Depth Not available.
7:04 AM 8:05 PM
Waning Crescent, 14% visible
METAR K1A5 281700Z AUTO 00000KT 10SM SCT050 SCT100 28/20 A3025 RMK AO2 T02820201

10-Day Weather Forecast

Almanac

Astronomy

Aug. 28, 2016 Rise Set
Actual Time
Civil Twilight
Nautical Twilight
Astronomical Twilight
Moon
Length of Visible Light
Length of Day
Tomorrow will be .
, % of the Moon is Illuminated

Today's Extremes

State Highs State Lows

Community

WunderPhotos

Upload Photos

1,935,633 photos uploaded!

WunderBlog® & News

Nearby

Air Quality

  Air Quality AQ Index Pollutant
Not available.

Snow Depth

Station Depth Elevation

Earthquake Activity

City Distance Mag. Time & Date
Minimum magnitude displayed is 2.5.

Coastal Water Temperatures

Place Temperature

Stations

Nearby Weather Stations

Station Location Temp. Windchill Dew Point Humidity Wind Precip. Elev Updated Type
                   

Watches & Warnings

There are currently no watches in effect.